createdAt,value
2023-05-17T00:01:21.744Z,100899.52
2023-05-17T00:05:15.196Z,100902.14
2023-05-17T00:09:06.981Z,100903.67
2023-05-17T00:13:06.332Z,100905.48
2023-05-17T00:17:02.150Z,100907.17
2023-05-17T00:21:01.462Z,100902.30
2023-05-17T00:24:57.027Z,100903.35
2023-05-17T00:28:56.424Z,100906.00
2023-05-17T00:32:52.097Z,100910.34
2023-05-17T00:36:51.414Z,100907.63
2023-05-17T00:40:38.374Z,100906.98
2023-05-17T00:44:23.323Z,100906.80
2023-05-17T00:48:08.615Z,100905.41
2023-05-17T00:51:54.082Z,100906.33
2023-05-17T00:55:39.182Z,100900.66
2023-05-17T00:59:24.295Z,100900.68
2023-05-17T01:03:09.620Z,100904.92
2023-05-17T01:07:02.829Z,100905.20
2023-05-17T01:11:01.764Z,100906.73
2023-05-17T01:14:56.865Z,100909.20
2023-05-17T01:18:56.282Z,100906.06
2023-05-17T01:22:51.924Z,100907.13
2023-05-17T01:26:51.109Z,100905.08
2023-05-17T01:30:47.044Z,100902.81
2023-05-17T01:34:47.055Z,100901.50
2023-05-17T01:38:43.577Z,100904.02
2023-05-17T01:42:43.825Z,100905.39
2023-05-17T01:46:41.780Z,100905.63
2023-05-17T01:50:41.863Z,100904.38
2023-05-17T01:54:40.396Z,100908.07
2023-05-17T01:58:39.984Z,100912.61
2023-05-17T02:02:36.691Z,100906.14
2023-05-17T02:06:36.919Z,100901.36
2023-05-17T02:10:33.344Z,100908.85
2023-05-17T02:14:32.890Z,100912.36
2023-05-17T02:18:29.660Z,100911.84
2023-05-17T02:22:31.068Z,100910.35
2023-05-17T02:26:27.626Z,100907.95
2023-05-17T02:30:28.921Z,100906.92
2023-05-17T02:34:27.177Z,100901.56
2023-05-17T02:38:26.976Z,100903.27
2023-05-17T02:42:24.130Z,100904.60
2023-05-17T02:46:23.946Z,100909.36
2023-05-17T02:50:21.160Z,100912.30
2023-05-17T02:54:21.053Z,100917.21
2023-05-17T02:58:19.393Z,100920.21
2023-05-17T03:02:19.162Z,100923.92
2023-05-17T03:06:17.076Z,100926.95
2023-05-17T03:10:16.313Z,100932.51
2023-05-17T03:14:15.350Z,100936.98
2023-05-17T03:18:14.729Z,100938.58
2023-05-17T03:22:13.279Z,100937.95
2023-05-17T03:26:12.917Z,100939.19
2023-05-17T03:30:16.299Z,100940.72
2023-05-17T03:34:16.999Z,100942.69
2023-05-17T03:38:14.505Z,100941.43
2023-05-17T03:42:14.139Z,100950.03
2023-05-17T03:46:12.042Z,100959.27
2023-05-17T03:50:12.188Z,100964.30
2023-05-17T03:54:09.905Z,100964.31
2023-05-17T03:58:09.172Z,100968.30
2023-05-17T04:02:06.890Z,100970.73
2023-05-17T04:06:08.221Z,100974.55
2023-05-17T04:10:06.652Z,100976.96
2023-05-17T04:14:06.132Z,100980.67
2023-05-17T04:18:04.234Z,100979.14
2023-05-17T04:22:04.174Z,100981.69
2023-05-17T04:26:01.971Z,100984.38
2023-05-17T04:30:02.343Z,100980.33
2023-05-17T04:34:00.336Z,100987.95
2023-05-17T04:38:00.052Z,100989.52
2023-05-17T04:41:56.633Z,100995.92
2023-05-17T04:45:57.233Z,101000.30
2023-05-17T04:49:54.994Z,101002.54
2023-05-17T04:53:55.140Z,101001.39
2023-05-17T04:57:52.029Z,101002.44
2023-05-17T05:01:52.262Z,100998.23
2023-05-17T05:05:48.829Z,100995.30
2023-05-17T05:09:48.091Z,100998.14
2023-05-17T05:13:46.168Z,100998.95
2023-05-17T05:17:46.437Z,100998.66
2023-05-17T05:21:43.929Z,100996.46
2023-05-17T05:25:44.300Z,100993.04
2023-05-17T05:29:42.241Z,100998.48
2023-05-17T05:33:29.245Z,101000.20
2023-05-17T05:37:16.201Z,100996.03
2023-05-17T05:41:03.293Z,100995.42
2023-05-17T05:44:48.614Z,100995.88
2023-05-17T05:48:34.613Z,100995.73
2023-05-17T05:52:19.871Z,100998.83
2023-05-17T05:56:05.412Z,100998.95
2023-05-17T05:59:50.240Z,101001.80
2023-05-17T06:03:35.281Z,101005.88
2023-05-17T06:07:26.868Z,101012.55
2023-05-17T06:11:18.533Z,101017.06
2023-05-17T06:15:20.878Z,101022.40
2023-05-17T06:19:20.380Z,101025.13
2023-05-17T06:23:18.128Z,101028.09
2023-05-17T06:27:17.402Z,101030.48
2023-05-17T06:31:12.466Z,101033.63
2023-05-17T06:35:11.480Z,101034.94
2023-05-17T06:39:06.723Z,101042.71
2023-05-17T06:43:06.369Z,101037.57
2023-05-17T06:47:01.892Z,101042.60
2023-05-17T06:50:47.061Z,101048.27
2023-05-17T06:54:32.050Z,101050.30
2023-05-17T06:58:17.184Z,101051.13
2023-05-17T07:02:02.441Z,101043.36
2023-05-17T07:05:59.778Z,101038.41
2023-05-17T07:10:01.348Z,101041.95
2023-05-17T07:13:59.501Z,101041.71
2023-05-17T07:18:01.343Z,101051.19
2023-05-17T07:21:59.598Z,101053.27
2023-05-17T07:25:58.946Z,101049.42
2023-05-17T07:29:57.449Z,101046.23
2023-05-17T07:33:56.708Z,101046.17
2023-05-17T07:37:55.417Z,101050.04
2023-05-17T07:41:57.182Z,101048.89
2023-05-17T07:45:54.759Z,101049.50
2023-05-17T07:49:56.322Z,101046.33
2023-05-17T07:53:51.589Z,101046.30
2023-05-17T07:57:51.624Z,101047.35
2023-05-17T08:01:50.769Z,101045.77
2023-05-17T08:05:49.381Z,101047.77
2023-05-17T08:09:54.495Z,101054.19
2023-05-17T08:13:49.634Z,101053.85
2023-05-17T08:17:51.553Z,101057.99
2023-05-17T08:21:46.640Z,101061.23
2023-05-17T08:25:48.412Z,101066.69
2023-05-17T08:29:47.501Z,101069.30
2023-05-17T08:33:47.243Z,101064.30
2023-05-17T08:37:44.856Z,101066.15
2023-05-17T08:41:38.460Z,101061.70
2023-05-17T08:45:33.836Z,101063.09
2023-05-17T08:49:27.517Z,101065.39
2023-05-17T08:53:23.800Z,101067.13
2023-05-17T08:57:17.506Z,101061.85
2023-05-17T09:01:12.791Z,101057.84
2023-05-17T09:05:12.358Z,101060.34
2023-05-17T09:09:07.657Z,101059.79
2023-05-17T09:13:07.202Z,101058.98
2023-05-17T09:16:58.803Z,101060.34
2023-05-17T09:20:57.886Z,101065.27
2023-05-17T09:24:49.739Z,101059.23
2023-05-17T09:28:48.995Z,101060.02
2023-05-17T09:32:44.752Z,101059.08
2023-05-17T09:36:43.932Z,101057.39
2023-05-17T09:40:39.695Z,101054.84
2023-05-17T09:44:38.583Z,101057.27
2023-05-17T09:48:34.603Z,101056.45
2023-05-17T09:52:33.809Z,101051.41
2023-05-17T09:56:28.952Z,101040.66
2023-05-17T10:00:26.167Z,101037.16
2023-05-17T10:04:21.810Z,101041.05
2023-05-17T10:08:21.372Z,101035.36
2023-05-17T10:12:16.916Z,101031.15
2023-05-17T10:16:16.259Z,101025.08
2023-05-17T10:20:12.124Z,101020.48
2023-05-17T10:24:11.578Z,101019.68
2023-05-17T10:28:07.057Z,101014.46
2023-05-17T10:32:06.470Z,101007.36
2023-05-17T10:35:59.488Z,101003.18
2023-05-17T10:39:59.046Z,101002.86
2023-05-17T10:43:54.738Z,101008.09
2023-05-17T10:47:54.108Z,101005.65
2023-05-17T10:51:49.719Z,101001.11
2023-05-17T10:55:48.965Z,101003.43
2023-05-17T10:59:44.993Z,101002.23
2023-05-17T11:03:44.841Z,101005.06
2023-05-17T11:07:44.771Z,101002.66
2023-05-17T11:11:46.397Z,100994.63
2023-05-17T11:15:44.982Z,100991.33
2023-05-17T11:19:46.635Z,100988.17
2023-05-17T11:23:44.815Z,100987.16
2023-05-17T11:27:46.311Z,100981.71
2023-05-17T11:31:43.861Z,100980.68
2023-05-17T11:35:45.362Z,100974.19
2023-05-17T11:39:43.825Z,100977.42
2023-05-17T11:43:45.978Z,100970.19
2023-05-17T11:47:43.897Z,100966.55
2023-05-17T11:51:44.983Z,100960.60
2023-05-17T11:55:42.786Z,100959.16
2023-05-17T11:59:44.529Z,100951.76
2023-05-17T12:03:42.926Z,100948.92
2023-05-17T12:07:44.387Z,100943.41
2023-05-17T12:11:42.957Z,100942.06
2023-05-17T12:15:44.500Z,100936.60
2023-05-17T12:19:42.984Z,100939.77
2023-05-17T12:23:44.379Z,100937.64
2023-05-17T12:27:41.938Z,100930.52
2023-05-17T12:31:42.893Z,100926.61
2023-05-17T12:35:40.954Z,100920.84
2023-05-17T12:39:42.717Z,100917.96
2023-05-17T12:43:40.852Z,100912.52
2023-05-17T12:47:42.757Z,100907.95
2023-05-17T12:51:40.971Z,100906.97
2023-05-17T12:55:42.452Z,100909.58
2023-05-17T12:59:41.048Z,100905.46
2023-05-17T13:03:42.293Z,100904.70
2023-05-17T13:07:41.069Z,100902.34
2023-05-17T13:11:43.017Z,100900.86
2023-05-17T13:15:41.014Z,100901.16
2023-05-17T13:19:42.745Z,100900.88
2023-05-17T13:23:41.129Z,100899.19
2023-05-17T13:27:42.471Z,100896.10
2023-05-17T13:31:41.026Z,100893.82
2023-05-17T13:35:42.617Z,100891.05
2023-05-17T13:39:40.875Z,100890.34
2023-05-17T13:43:42.693Z,100888.33
2023-05-17T13:47:35.980Z,100884.98
2023-05-17T13:51:37.756Z,100884.11
2023-05-17T13:55:31.060Z,100883.99
2023-05-17T13:59:32.770Z,100879.70
2023-05-17T14:03:31.282Z,100880.36
2023-05-17T14:07:32.631Z,100882.64
2023-05-17T14:11:31.314Z,100877.74
2023-05-17T14:15:32.723Z,100877.77
2023-05-17T14:19:31.162Z,100878.48
2023-05-17T14:23:32.697Z,100874.64
2023-05-17T14:27:31.614Z,100875.38
2023-05-17T14:31:33.657Z,100871.05
2023-05-17T14:35:32.140Z,100866.04
2023-05-17T14:39:31.775Z,100859.29
2023-05-17T14:43:29.257Z,100856.11
2023-05-17T14:47:28.791Z,100855.78
2023-05-17T14:51:26.509Z,100854.96
2023-05-17T14:55:26.840Z,100851.23
2023-05-17T14:59:24.528Z,100847.79
2023-05-17T15:03:24.724Z,100847.05
2023-05-17T15:07:28.644Z,100845.48
2023-05-17T15:11:28.307Z,100842.04
2023-05-17T15:15:29.333Z,100844.38
2023-05-17T15:19:28.456Z,100846.66
2023-05-17T15:23:30.210Z,100838.69
2023-05-17T15:27:29.366Z,100836.45
2023-05-17T15:31:30.848Z,100840.32
2023-05-17T15:35:29.604Z,100840.91
2023-05-17T15:39:31.288Z,100841.72
2023-05-17T15:43:29.319Z,100839.67
2023-05-17T15:47:42.356Z,100839.47
2023-05-17T15:51:41.311Z,100841.29
2023-05-17T15:55:42.837Z,100845.16
2023-05-17T15:59:41.256Z,100841.52
2023-05-17T16:03:39.298Z,100844.93
2023-05-17T16:07:41.045Z,100845.48
2023-05-17T16:11:39.483Z,100845.12
2023-05-17T16:15:40.424Z,100846.26
2023-05-17T16:19:38.483Z,100847.92
2023-05-17T16:23:39.952Z,100851.33
2023-05-17T16:27:38.329Z,100848.18
2023-05-17T16:31:39.990Z,100850.52
2023-05-17T16:35:38.360Z,100851.49
2023-05-17T16:39:39.952Z,100855.70
2023-05-17T16:43:39.925Z,100856.78
2023-05-17T16:47:42.057Z,100862.14
2023-05-17T16:51:41.918Z,100863.52
2023-05-17T16:55:43.462Z,100863.19
2023-05-17T16:59:40.438Z,100862.89
2023-05-17T17:03:40.629Z,100863.20
2023-05-17T17:07:37.789Z,100864.52
2023-05-17T17:11:33.648Z,100869.88
2023-05-17T17:15:29.593Z,100868.31
2023-05-17T17:19:27.294Z,100866.59
2023-05-17T17:23:24.664Z,100869.45
2023-05-17T17:27:23.725Z,100871.48
2023-05-17T17:31:19.536Z,100873.55
2023-05-17T17:35:18.565Z,100877.69
2023-05-17T17:39:13.574Z,100877.65
2023-05-17T17:43:12.854Z,100883.26
2023-05-17T17:47:08.875Z,100888.38
2023-05-17T17:51:04.681Z,100887.52
2023-05-17T17:55:03.757Z,100891.37
2023-05-17T17:58:59.887Z,100887.55
2023-05-17T18:02:59.440Z,100885.30
2023-05-17T18:06:54.993Z,100885.64
2023-05-17T18:10:50.620Z,100889.52
2023-05-17T18:14:45.842Z,100889.86
2023-05-17T18:18:41.529Z,100889.84
2023-05-17T18:22:38.779Z,100892.42
2023-05-17T18:26:35.785Z,100895.28
2023-05-17T18:30:35.397Z,100899.27
2023-05-17T18:34:30.707Z,100899.78
2023-05-17T18:38:29.722Z,100900.89
2023-05-17T18:42:28.689Z,100902.42
2023-05-17T18:46:23.796Z,100906.81
2023-05-17T18:50:22.875Z,100911.46
2023-05-17T18:54:18.871Z,100910.64
2023-05-17T18:58:15.282Z,100909.38
2023-05-17T19:02:14.308Z,100910.33
2023-05-17T19:06:09.643Z,100908.55
2023-05-17T19:10:09.022Z,100909.83
2023-05-17T19:14:08.268Z,100907.14
2023-05-17T19:18:09.241Z,100910.77
2023-05-17T19:22:04.729Z,100912.96
2023-05-17T19:26:04.652Z,100910.34
2023-05-17T19:29:59.892Z,100908.67
2023-05-17T19:34:03.233Z,100909.40
2023-05-17T19:37:58.896Z,100906.64
2023-05-17T19:41:58.049Z,100908.45
2023-05-17T19:45:54.198Z,100913.36
2023-05-17T19:49:53.436Z,100909.63
2023-05-17T19:53:54.382Z,100910.10
2023-05-17T19:57:50.962Z,100910.95
2023-05-17T20:01:53.380Z,100908.66
2023-05-17T20:05:49.266Z,100908.48
2023-05-17T20:09:53.381Z,100912.73
2023-05-17T20:13:49.465Z,100914.95
2023-05-17T20:17:50.900Z,100914.86
2023-05-17T20:21:50.436Z,100917.09
2023-05-17T20:25:55.431Z,100915.61
2023-05-17T20:29:51.023Z,100916.63
2023-05-17T20:33:48.222Z,100914.34
2023-05-17T20:37:47.679Z,100916.34
2023-05-17T20:41:46.948Z,100917.27
2023-05-17T20:45:42.009Z,100915.00
2023-05-17T20:49:41.515Z,100918.67
2023-05-17T20:53:37.032Z,100921.66
2023-05-17T20:57:34.105Z,100922.70
2023-05-17T21:01:27.477Z,100923.66
2023-05-17T21:05:30.590Z,100926.84
2023-05-17T21:09:25.937Z,100931.56
2023-05-17T21:13:25.055Z,100933.61
2023-05-17T21:17:21.112Z,100937.21
2023-05-17T21:21:20.689Z,100942.11
2023-05-17T21:25:16.330Z,100939.08
2023-05-17T21:29:13.322Z,100939.16
2023-05-17T21:33:13.678Z,100937.96
2023-05-17T21:37:13.041Z,100935.70
2023-05-17T21:41:10.065Z,100939.18
2023-05-17T21:45:06.220Z,100941.77
2023-05-17T21:49:06.366Z,100944.77
2023-05-17T21:53:05.545Z,100945.30
2023-05-17T21:56:58.484Z,100945.13
2023-05-17T22:01:01.785Z,100947.45
2023-05-17T22:04:57.310Z,100949.11
2023-05-17T22:08:56.958Z,100947.77
2023-05-17T22:12:52.131Z,100957.13
2023-05-17T22:16:51.192Z,100951.23
2023-05-17T22:20:47.373Z,100951.42
2023-05-17T22:24:44.577Z,100953.71
2023-05-17T22:28:44.674Z,100955.33
2023-05-17T22:32:43.522Z,100953.41
2023-05-17T22:36:39.155Z,100953.32
2023-05-17T22:40:38.628Z,100956.84
2023-05-17T22:44:34.247Z,100958.70
2023-05-17T22:48:33.352Z,100963.88
2023-05-17T22:52:26.538Z,100962.84
2023-05-17T22:56:29.704Z,100957.92
2023-05-17T23:00:25.471Z,100964.64
2023-05-17T23:04:21.278Z,100966.36
2023-05-17T23:08:20.248Z,100978.02
2023-05-17T23:12:22.006Z,100978.05
2023-05-17T23:16:17.194Z,100981.06
2023-05-17T23:20:06.359Z,100981.02
2023-05-17T23:23:55.019Z,100980.40
2023-05-17T23:27:41.497Z,100986.41
2023-05-17T23:31:30.461Z,100986.54
2023-05-17T23:35:15.428Z,100980.63
2023-05-17T23:39:00.625Z,100989.89
2023-05-17T23:42:45.869Z,100990.11
2023-05-17T23:46:30.827Z,100988.94
2023-05-17T23:50:16.019Z,100989.51
2023-05-17T23:54:01.144Z,100988.44
2023-05-17T23:57:46.420Z,100977.95
